Time;durP1;ratioP1;P1;durP2;ratioP2;P2;SDS_P1;SDS_P2;PMS_P1;PMS_P2;Temp;Humidity;BMP_temperature;BMP_pressure;BME280_temperature;BME280_humidity;BME280_pressure;Samples;Min_cycle;Max_cycle;Signal;HPM_P1;HPM_P2
2021/05/23 00:00:11;;;;;;;1.80;0.85;;;10.80;99.90;;;;;;5011598;28;20233;-77
2021/05/23 00:02:39;;;;;;;2.30;0.88;;;10.80;99.90;;;;;;5010092;28;20545;-77
2021/05/23 00:05:08;;;;;;;4.15;0.85;;;10.80;99.90;;;;;;5001712;28;20719;-78
2021/05/23 00:07:38;;;;;;;1.77;0.80;;;10.80;99.90;;;;;;5012649;28;20218;-77
2021/05/23 00:10:08;;;;;;;1.55;0.65;;;10.80;99.90;;;;;;5004823;28;20483;-77
2021/05/23 00:12:35;;;;;;;4.53;0.95;;;10.80;99.90;;;;;;4994986;28;20559;-78
2021/05/23 00:15:06;;;;;;;2.00;0.57;;;10.70;99.90;;;;;;4992130;28;20565;-78
2021/05/23 00:17:33;;;;;;;1.85;0.70;;;10.70;99.90;;;;;;4990736;28;20204;-77
2021/05/23 00:20:00;;;;;;;2.63;0.93;;;10.70;99.90;;;;;;5002088;28;20216;-77
2021/05/23 00:22:27;;;;;;;2.25;0.80;;;10.70;99.90;;;;;;4997341;28;20616;-77
2021/05/23 00:24:54;;;;;;;1.60;0.60;;;10.70;99.90;;;;;;4994064;28;20244;-77
2021/05/23 00:27:21;;;;;;;1.40;0.60;;;10.70;99.90;;;;;;4992341;28;20218;-77
2021/05/23 00:29:48;;;;;;;2.58;0.77;;;10.80;99.90;;;;;;5002567;28;20221;-76
2021/05/23 00:32:17;;;;;;;2.58;0.80;;;10.70;99.90;;;;;;5014480;28;20184;-77
2021/05/23 00:34:43;;;;;;;2.60;0.63;;;10.70;99.90;;;;;;5009840;28;20214;-78
2021/05/23 00:37:10;;;;;;;1.73;0.60;;;10.70;99.90;;;;;;5012318;28;20216;-77
2021/05/23 00:39:37;;;;;;;1.85;0.63;;;10.70;99.90;;;;;;5019753;28;20220;-77
2021/05/23 00:42:04;;;;;;;3.08;0.88;;;10.80;99.90;;;;;;5012443;28;20654;-77
2021/05/23 00:44:31;;;;;;;1.55;0.65;;;10.80;99.90;;;;;;5005942;28;20221;-77
2021/05/23 00:46:58;;;;;;;1.80;0.60;;;10.80;99.90;;;;;;5001862;28;20714;-77
2021/05/23 00:49:25;;;;;;;1.92;0.65;;;10.80;99.90;;;;;;4991790;28;20226;-77
2021/05/23 00:51:52;;;;;;;1.30;0.60;;;10.80;99.90;;;;;;5027267;28;20664;-77
2021/05/23 00:54:19;;;;;;;2.15;0.93;;;10.80;99.90;;;;;;5005940;28;20303;-77
2021/05/23 00:56:46;;;;;;;1.98;0.77;;;10.80;99.90;;;;;;5000036;28;20217;-77
2021/05/23 00:59:13;;;;;;;1.45;0.90;;;10.80;99.90;;;;;;5008184;28;20224;-77
2021/05/23 01:01:46;;;;;;;1.83;0.90;;;10.80;99.90;;;;;;4991187;28;20186;-77
2021/05/23 01:04:14;;;;;;;1.50;0.68;;;10.80;99.90;;;;;;4991286;28;20257;-77
2021/05/23 01:06:41;;;;;;;2.10;0.88;;;10.80;99.90;;;;;;4992143;28;20222;-77
2021/05/23 01:09:09;;;;;;;2.78;0.98;;;10.70;99.90;;;;;;4993256;28;20240;-77
2021/05/23 01:11:42;;;;;;;1.95;0.90;;;10.70;99.90;;;;;;5011031;28;20276;-77
2021/05/23 01:14:46;;;;;;;1.27;0.60;;;10.70;99.90;;;;;;5009290;28;20221;-77
2021/05/23 01:17:14;;;;;;;5.03;0.82;;;10.70;99.90;;;;;;4992612;28;20202;-77
2021/05/23 01:20:08;;;;;;;0.90;0.60;;;10.70;99.90;;;;;;5001072;28;20268;-77
2021/05/23 01:22:52;;;;;;;2.03;0.63;;;10.70;99.90;;;;;;5014439;28;20196;-77
2021/05/23 01:25:24;;;;;;;1.48;0.70;;;10.60;99.90;;;;;;5011750;28;20698;-78
2021/05/23 01:27:52;;;;;;;2.83;0.60;;;10.60;99.90;;;;;;5015256;28;20239;-77
2021/05/23 01:30:31;;;;;;;1.15;0.70;;;10.60;99.90;;;;;;5014568;28;20244;-77
2021/05/23 01:33:00;;;;;;;0.60;0.50;;;10.60;99.90;;;;;;5004842;28;20278;-77
2021/05/23 01:35:50;;;;;;;2.88;1.00;;;10.60;99.90;;;;;;5014119;28;20645;-77
2021/05/23 01:38:20;;;;;;;3.25;0.60;;;10.60;99.90;;;;;;5012595;28;20316;-77
2021/05/23 01:40:49;;;;;;;2.28;0.70;;;10.60;99.90;;;;;;4999292;28;20195;-77
2021/05/23 01:43:19;;;;;;;1.67;0.90;;;10.70;99.90;;;;;;5012741;28;20255;-77
2021/05/23 01:45:46;;;;;;;1.50;1.05;;;10.70;99.90;;;;;;5015112;28;20187;-77
2021/05/23 01:48:13;;;;;;;2.53;1.23;;;10.70;99.90;;;;;;5004556;28;20708;-77
2021/05/23 01:50:40;;;;;;;0.82;0.80;;;10.70;99.90;;;;;;5011560;28;20223;-77
2021/05/23 01:53:08;;;;;;;1.70;0.85;;;10.70;99.90;;;;;;5006997;28;20181;-78
2021/05/23 01:55:35;;;;;;;1.10;0.95;;;10.70;99.90;;;;;;4997194;28;20186;-77
2021/05/23 01:58:03;;;;;;;2.42;1.02;;;10.70;99.90;;;;;;5002096;28;20554;-77
2021/05/23 02:00:33;;;;;;;2.38;1.30;;;10.80;99.90;;;;;;5000464;28;20192;-77
2021/05/23 02:03:03;;;;;;;4.00;0.80;;;10.80;99.90;;;;;;4991869;28;20524;-77
2021/05/23 02:05:31;;;;;;;1.20;0.90;;;10.80;99.90;;;;;;4992583;28;20187;-77
2021/05/23 02:07:57;;;;;;;1.55;1.02;;;10.80;99.90;;;;;;4993389;28;20207;-77
2021/05/23 02:10:25;;;;;;;1.50;1.10;;;10.80;99.90;;;;;;5007382;28;20203;-77
2021/05/23 02:12:52;;;;;;;1.10;0.90;;;10.80;99.90;;;;;;5014670;28;20182;-77
2021/05/23 02:15:22;;;;;;;1.58;0.88;;;10.80;99.90;;;;;;5004694;28;20304;-77
2021/05/23 02:17:49;;;;;;;1.80;1.30;;;10.90;99.90;;;;;;4994735;28;20299;-77
2021/05/23 02:20:19;;;;;;;1.90;1.20;;;10.90;99.90;;;;;;5004179;28;20709;-77
2021/05/23 02:22:48;;;;;;;1.80;1.10;;;10.90;99.90;;;;;;5010608;28;20277;-77
2021/05/23 02:25:20;;;;;;;0.93;0.82;;;10.90;99.90;;;;;;5001735;28;20273;-77
2021/05/23 02:27:53;;;;;;;0.70;0.60;;;10.80;99.90;;;;;;5012304;28;20208;-77
2021/05/23 02:30:24;;;;;;;2.47;0.98;;;10.80;99.90;;;;;;5013864;28;20291;-77
2021/05/23 02:32:51;;;;;;;0.98;0.93;;;10.90;99.90;;;;;;5027169;28;20271;-77
2021/05/23 02:35:21;;;;;;;3.22;1.00;;;10.80;99.90;;;;;;4974899;28;20577;-77
2021/05/23 02:37:48;;;;;;;1.95;0.80;;;10.80;99.90;;;;;;4981695;28;20707;-77
2021/05/23 02:40:18;;;;;;;1.37;1.13;;;10.80;99.90;;;;;;5024395;28;20640;-78
2021/05/23 02:42:46;;;;;;;1.20;0.77;;;10.80;99.90;;;;;;5013406;28;20468;-77
2021/05/23 02:45:15;;;;;;;1.40;0.93;;;10.80;99.90;;;;;;5006685;28;20310;-77
2021/05/23 02:47:43;;;;;;;1.83;1.10;;;10.70;99.90;;;;;;5009524;28;20222;-77
2021/05/23 02:50:13;;;;;;;3.88;1.40;;;10.70;99.90;;;;;;4993654;28;20255;-78
2021/05/23 02:52:40;;;;;;;4.13;1.08;;;10.70;99.90;;;;;;4996094;28;20182;-78
2021/05/23 02:55:10;;;;;;;2.13;0.85;;;10.70;99.90;;;;;;5012157;28;20560;-77
2021/05/23 02:57:40;;;;;;;1.45;0.80;;;10.60;99.90;;;;;;5012750;28;20558;-77
2021/05/23 03:00:11;;;;;;;1.00;0.90;;;10.60;99.90;;;;;;5013462;28;20250;-77
2021/05/23 03:02:38;;;;;;;1.95;1.05;;;10.60;99.90;;;;;;5008988;28;20186;-77
2021/05/23 03:05:09;;;;;;;1.05;0.95;;;10.60;99.90;;;;;;4985629;28;20222;-77
2021/05/23 03:07:39;;;;;;;0.90;0.90;;;10.60;99.90;;;;;;4995196;28;20224;-77
2021/05/23 03:10:09;;;;;;;1.30;1.20;;;10.60;99.90;;;;;;5004785;28;20252;-78
2021/05/23 03:12:37;;;;;;;1.55;1.10;;;10.60;99.90;;;;;;4994935;28;20213;-77
2021/05/23 03:15:10;;;;;;;1.42;1.10;;;10.60;99.90;;;;;;5005864;28;20211;-78
2021/05/23 03:17:37;;;;;;;2.35;1.27;;;10.60;99.90;;;;;;5010491;28;20212;-77
2021/05/23 03:20:07;;;;;;;1.10;0.70;;;10.60;99.90;;;;;;5006736;28;20306;-77
2021/05/23 03:22:38;;;;;;;1.60;0.75;;;10.50;99.90;;;;;;4995422;28;20279;-78
2021/05/23 03:25:07;;;;;;;2.50;0.75;;;10.50;99.90;;;;;;4997278;28;20310;-78
2021/05/23 03:27:34;;;;;;;5.00;1.08;;;10.60;99.90;;;;;;5012382;28;20280;-78
2021/05/23 03:30:05;;;;;;;1.45;0.85;;;10.50;99.90;;;;;;5012798;28;20254;-78
2021/05/23 03:32:33;;;;;;;1.33;0.93;;;10.60;99.90;;;;;;5010782;28;20211;-78
2021/05/23 03:35:00;;;;;;;1.67;0.68;;;10.60;99.90;;;;;;5012937;28;20215;-79
2021/05/23 03:37:27;;;;;;;0.90;0.60;;;10.60;99.90;;;;;;5010010;28;20331;-79
2021/05/23 03:39:54;;;;;;;0.80;0.80;;;10.50;99.90;;;;;;4990707;28;20737;-79
2021/05/23 03:42:21;;;;;;;2.38;0.95;;;10.50;99.90;;;;;;4978021;28;20183;-79
2021/05/23 03:44:49;;;;;;;2.03;1.13;;;10.50;99.90;;;;;;4995057;28;20305;-79
2021/05/23 03:47:18;;;;;;;2.88;1.60;;;10.50;99.90;;;;;;5011289;28;20253;-80
2021/05/23 03:49:45;;;;;;;2.05;1.20;;;10.40;99.90;;;;;;5026351;28;20271;-79
2021/05/23 03:52:12;;;;;;;1.20;1.10;;;10.40;99.90;;;;;;5012429;28;20187;-79
2021/05/23 03:54:40;;;;;;;1.30;1.20;;;10.40;99.90;;;;;;4994130;28;20216;-79
2021/05/23 03:57:07;;;;;;;1.13;1.05;;;10.40;99.90;;;;;;4995127;28;20250;-79
2021/05/23 03:59:34;;;;;;;1.42;1.25;;;10.40;99.90;;;;;;5010379;28;20269;-79
2021/05/23 04:02:05;;;;;;;1.50;1.40;;;10.40;99.90;;;;;;5010738;28;20286;-79
2021/05/23 04:04:49;;;;;;;1.20;1.10;;;10.30;99.90;;;;;;5009697;28;20226;-79
2021/05/23 04:07:18;;;;;;;2.03;1.80;;;10.30;99.90;;;;;;5011140;28;20218;-79
2021/05/23 04:09:47;;;;;;;2.80;1.60;;;10.20;99.90;;;;;;4970977;28;20218;-79
2021/05/23 04:12:18;;;;;;;1.20;1.10;;;10.20;99.90;;;;;;4975474;28;20186;-80
2021/05/23 04:14:45;;;;;;;1.40;1.30;;;10.30;99.90;;;;;;5021850;28;20634;-79
2021/05/23 04:17:13;;;;;;;3.40;1.80;;;10.30;99.90;;;;;;4988050;28;20212;-79
2021/05/23 04:19:40;;;;;;;1.63;1.20;;;10.30;99.90;;;;;;4991324;28;20246;-79
2021/05/23 04:22:07;;;;;;;1.52;1.42;;;10.30;99.90;;;;;;5004678;28;20560;-79
2021/05/23 04:24:36;;;;;;;2.38;1.58;;;10.30;99.90;;;;;;5025740;28;20245;-79
2021/05/23 04:27:03;;;;;;;1.40;1.30;;;10.30;99.90;;;;;;5010614;28;20210;-79
2021/05/23 04:29:34;;;;;;;4.43;3.25;;;10.20;99.90;;;;;;4995344;28;20215;-79
2021/05/23 04:32:06;;;;;;;4.57;1.70;;;10.20;99.90;;;;;;5012376;28;20205;-79
2021/05/23 04:34:35;;;;;;;3.63;1.63;;;10.20;99.90;;;;;;4991563;28;20649;-79
2021/05/23 04:37:04;;;;;;;3.45;2.60;;;10.20;99.90;;;;;;4991137;28;20621;-79
2021/05/23 04:39:33;;;;;;;2.97;2.08;;;10.20;99.90;;;;;;5000258;28;20219;-79
2021/05/23 04:42:00;;;;;;;5.47;2.55;;;10.20;99.90;;;;;;5011186;28;20272;-79
2021/05/23 04:44:48;;;;;;;6.40;2.30;;;10.20;99.90;;;;;;4993295;28;20226;-79
2021/05/23 04:47:15;;;;;;;4.03;2.00;;;10.20;99.90;;;;;;5010579;28;20213;-79
2021/05/23 04:49:42;;;;;;;7.22;2.28;;;10.20;99.90;;;;;;5006727;28;20219;-79
2021/05/23 04:52:11;;;;;;;6.95;3.05;;;10.20;99.90;;;;;;5011386;28;20206;-79
2021/05/23 04:54:40;;;;;;;5.82;3.05;;;10.10;99.90;;;;;;4994453;28;20218;-79
2021/05/23 04:57:08;;;;;;;4.40;3.03;;;10.20;99.90;;;;;;4991049;28;20715;-79
2021/05/23 04:59:36;;;;;;;3.67;2.63;;;10.20;99.90;;;;;;5007044;28;20585;-79
2021/05/23 05:02:03;;;;;;;2.88;2.67;;;10.20;99.90;;;;;;5009598;28;20657;-79
2021/05/23 05:04:31;;;;;;;2.40;2.20;;;10.20;99.90;;;;;;5005214;28;20223;-79
2021/05/23 05:06:58;;;;;;;6.70;2.80;;;10.20;99.90;;;;;;5009783;28;20310;-79
2021/05/23 05:09:25;;;;;;;4.00;3.67;;;10.20;99.90;;;;;;4995480;28;20645;-79
2021/05/23 05:11:52;;;;;;;4.38;2.92;;;10.20;99.90;;;;;;5004708;28;20636;-79
2021/05/23 05:14:19;;;;;;;3.78;2.63;;;10.20;99.90;;;;;;4995001;28;20221;-79
2021/05/23 05:16:51;;;;;;;3.22;2.10;;;10.20;99.90;;;;;;5001145;28;20206;-79
2021/05/23 05:19:18;;;;;;;5.63;1.90;;;10.20;99.90;;;;;;4994969;28;20604;-79
2021/05/23 05:21:45;;;;;;;6.70;2.10;;;10.20;99.90;;;;;;5000377;28;20183;-79
2021/05/23 05:24:13;;;;;;;2.67;1.80;;;10.20;99.90;;;;;;4996145;28;20211;-79
2021/05/23 05:26:40;;;;;;;8.00;2.20;;;10.20;99.90;;;;;;5008994;28;20306;-79
2021/05/23 05:29:08;;;;;;;4.10;1.73;;;10.10;99.90;;;;;;5010347;28;20226;-79
2021/05/23 05:31:35;;;;;;;3.38;2.03;;;10.10;99.90;;;;;;4995258;28;20204;-79
2021/05/23 05:34:04;;;;;;;3.38;1.73;;;10.10;99.90;;;;;;5007102;28;20220;-79
2021/05/23 05:36:31;;;;;;;3.33;1.40;;;10.10;99.90;;;;;;4992701;28;20237;-79
2021/05/23 05:38:58;;;;;;;4.15;1.65;;;10.10;99.90;;;;;;4994237;28;20292;-79
2021/05/23 05:41:25;;;;;;;3.78;2.20;;;10.10;99.90;;;;;;4972501;28;20573;-79
2021/05/23 05:43:55;;;;;;;4.63;1.90;;;10.10;99.90;;;;;;4997274;28;20313;-79
2021/05/23 05:46:22;;;;;;;7.30;2.55;;;10.20;99.90;;;;;;4996185;28;20282;-79
2021/05/23 05:48:49;;;;;;;4.38;1.80;;;10.40;99.90;;;;;;4983645;28;20227;-79
2021/05/23 05:51:16;;;;;;;5.78;2.00;;;10.50;99.90;;;;;;5008242;28;20684;-79
2021/05/23 05:53:44;;;;;;;6.18;2.10;;;10.50;99.90;;;;;;5000288;28;20311;-79
2021/05/23 05:56:10;;;;;;;4.30;2.13;;;10.70;99.90;;;;;;5007511;28;20247;-78
2021/05/23 05:58:37;;;;;;;6.73;2.20;;;11.10;99.90;;;;;;4981130;28;20524;-79
2021/05/23 06:01:05;;;;;;;3.73;1.70;;;11.40;99.90;;;;;;5003475;28;20484;-79
2021/05/23 06:03:32;;;;;;;4.33;2.50;;;11.80;99.90;;;;;;4989575;28;20841;-79
2021/05/23 06:05:59;;;;;;;9.83;2.67;;;12.50;99.90;;;;;;4990774;28;20521;-79
2021/05/23 06:08:26;;;;;;;7.07;1.80;;;12.80;99.90;;;;;;4992990;28;20470;-79
2021/05/23 06:10:53;;;;;;;3.53;1.70;;;13.30;99.90;;;;;;4980656;28;21002;-79
2021/05/23 06:13:20;;;;;;;3.53;1.73;;;13.60;99.90;;;;;;4977904;28;20832;-78
2021/05/23 06:15:47;;;;;;;3.77;2.00;;;13.90;99.90;;;;;;5004192;28;20485;-79
2021/05/23 06:18:14;;;;;;;4.80;1.90;;;14.00;99.90;;;;;;5013623;28;20451;-79
2021/05/23 06:20:41;;;;;;;5.73;1.77;;;14.40;99.90;;;;;;4987552;28;20462;-79
2021/05/23 06:23:08;;;;;;;5.70;1.60;;;14.60;99.90;;;;;;4999903;28;20429;-79
2021/05/23 06:25:35;;;;;;;7.63;2.17;;;14.70;99.90;;;;;;5010189;28;20536;-79
2021/05/23 06:28:02;;;;;;;6.43;2.23;;;14.80;99.90;;;;;;5014295;28;20491;-79
2021/05/23 06:30:30;;;;;;;4.07;1.77;;;14.90;99.90;;;;;;5015043;28;20425;-79
2021/05/23 06:32:57;;;;;;;5.57;2.40;;;14.90;99.90;;;;;;4999900;28;20842;-79
2021/05/23 06:35:24;;;;;;;4.97;2.07;;;14.40;99.90;;;;;;5013130;28;20441;-78
2021/05/23 06:37:51;;;;;;;4.20;1.67;;;14.10;99.90;;;;;;5004544;28;20452;-78
2021/05/23 06:40:18;;;;;;;5.10;1.83;;;14.00;99.90;;;;;;4988658;28;20464;-78
2021/05/23 06:42:45;;;;;;;4.00;2.20;;;13.80;99.90;;;;;;4997073;28;20436;-78
2021/05/23 06:45:13;;;;;;;4.87;2.53;;;13.70;99.90;;;;;;4993866;28;20485;-78
2021/05/23 06:47:39;;;;;;;5.93;2.50;;;13.70;99.90;;;;;;5009541;28;20470;-78
2021/05/23 06:50:10;;;;;;;4.83;1.90;;;13.60;99.90;;;;;;5002941;28;20473;-77
2021/05/23 06:52:37;;;;;;;6.70;2.23;;;13.50;99.90;;;;;;5005153;28;20531;-78
2021/05/23 06:55:05;;;;;;;5.83;2.73;;;13.50;99.60;;;;;;5024370;28;20868;-78
2021/05/23 06:57:32;;;;;;;4.70;1.57;;;13.50;99.90;;;;;;5012017;28;20575;-77
2021/05/23 07:00:00;;;;;;;4.80;2.00;;;13.50;99.50;;;;;;4993129;28;20516;-78
2021/05/23 07:02:27;;;;;;;6.20;2.33;;;13.50;99.30;;;;;;5012894;28;20978;-77
2021/05/23 07:04:54;;;;;;;6.37;1.80;;;13.50;99.60;;;;;;5008087;28;20487;-78
2021/05/23 07:07:22;;;;;;;6.10;1.80;;;13.50;98.40;;;;;;4996399;28;20469;-78
2021/05/23 07:09:49;;;;;;;4.23;2.23;;;13.50;98.60;;;;;;4992854;28;20834;-77
2021/05/23 07:12:16;;;;;;;4.70;1.87;;;13.60;98.80;;;;;;4976643;28;20520;-78
2021/05/23 07:14:43;;;;;;;5.10;1.43;;;13.60;98.50;;;;;;4975430;28;20556;-78
2021/05/23 07:17:10;;;;;;;5.23;1.77;;;13.70;97.50;;;;;;5008532;28;20456;-77
2021/05/23 07:19:37;;;;;;;4.87;1.53;;;13.60;95.00;;;;;;4987842;28;20478;-77
2021/05/23 07:22:05;;;;;;;5.33;1.63;;;13.50;95.60;;;;;;4995157;28;20465;-77
2021/05/23 07:24:32;;;;;;;5.90;1.57;;;13.50;95.20;;;;;;4985073;28;20512;-77
2021/05/23 07:26:59;;;;;;;3.90;1.17;;;13.60;94.90;;;;;;4993336;28;21033;-77
2021/05/23 07:29:28;;;;;;;5.53;1.30;;;13.60;94.60;;;;;;4993734;28;20913;-78
2021/05/23 07:31:55;;;;;;;2.90;1.03;;;13.60;94.30;;;;;;5026159;28;20475;-78
2021/05/23 07:34:22;;;;;;;2.50;1.57;;;13.70;92.50;;;;;;4995025;28;20470;-77
2021/05/23 07:36:49;;;;;;;3.40;1.57;;;13.70;92.30;;;;;;4994307;28;20449;-77
2021/05/23 07:39:18;;;;;;;3.30;1.83;;;13.60;91.10;;;;;;5000144;28;20473;-77
2021/05/23 07:41:48;;;;;;;2.67;1.40;;;13.60;91.60;;;;;;4995853;28;20468;-77
2021/05/23 07:44:17;;;;;;;4.03;1.30;;;13.50;88.70;;;;;;5009917;28;20469;-77
2021/05/23 07:46:46;;;;;;;2.70;1.20;;;13.60;90.80;;;;;;4994233;28;20821;-77
2021/05/23 07:49:16;;;;;;;4.33;2.23;;;13.50;88.40;;;;;;4993516;28;20454;-78
2021/05/23 07:51:44;;;;;;;2.67;1.40;;;13.50;91.20;;;;;;5011091;28;20515;-78
2021/05/23 07:54:11;;;;;;;2.07;1.33;;;13.60;90.60;;;;;;4998980;28;20461;-78
2021/05/23 07:56:41;;;;;;;4.80;1.70;;;13.70;90.90;;;;;;5007546;28;20466;-77
2021/05/23 07:59:08;;;;;;;5.87;1.63;;;13.70;90.60;;;;;;5009910;28;20539;-78
2021/05/23 08:01:36;;;;;;;3.67;1.77;;;13.90;91.10;;;;;;5006712;28;20441;-78
2021/05/23 08:04:03;;;;;;;5.43;1.70;;;14.00;88.70;;;;;;4998580;28;20518;-78
2021/05/23 08:06:33;;;;;;;5.10;1.60;;;14.00;88.90;;;;;;4972560;28;20458;-78
2021/05/23 08:09:00;;;;;;;4.13;1.50;;;14.10;89.90;;;;;;4998345;28;20978;-77
2021/05/23 08:11:28;;;;;;;6.13;1.70;;;14.20;83.80;;;;;;5008231;28;20531;-78
2021/05/23 08:13:57;;;;;;;4.73;1.53;;;14.40;84.60;;;;;;4994291;28;20465;-78
2021/05/23 08:16:24;;;;;;;5.90;1.53;;;14.50;84.40;;;;;;4994885;28;20429;-78
2021/05/23 08:18:51;;;;;;;3.90;1.30;;;14.70;82.60;;;;;;4990987;28;20520;-78
2021/05/23 08:21:19;;;;;;;8.40;2.30;;;14.70;83.70;;;;;;5007113;28;20520;-78
2021/05/23 08:23:48;;;;;;;2.87;1.60;;;14.70;75.80;;;;;;4999211;28;20474;-77
2021/05/23 08:26:17;;;;;;;4.13;2.30;;;14.60;79.40;;;;;;4997313;28;20512;-78
2021/05/23 08:28:44;;;;;;;3.50;1.77;;;14.50;77.70;;;;;;5007465;28;20487;-78
2021/05/23 08:31:12;;;;;;;4.47;1.40;;;14.40;77.40;;;;;;5002045;28;20445;-78
2021/05/23 08:33:39;;;;;;;4.13;1.30;;;14.40;77.90;;;;;;4994712;28;20690;-78
2021/05/23 08:36:06;;;;;;;5.43;1.20;;;14.60;77.10;;;;;;5001718;28;20465;-78
2021/05/23 08:38:34;;;;;;;1.80;0.83;;;14.80;77.80;;;;;;4992169;28;20517;-78
2021/05/23 08:41:02;;;;;;;4.00;1.37;;;14.90;72.10;;;;;;5003827;28;20517;-78
2021/05/23 08:43:30;;;;;;;1.40;1.30;;;15.10;72.00;;;;;;5006881;28;21048;-78
2021/05/23 08:45:58;;;;;;;3.33;0.93;;;15.20;72.40;;;;;;4992096;28;20511;-78
2021/05/23 08:48:28;;;;;;;2.07;1.10;;;15.40;72.40;;;;;;4992654;28;20862;-78
2021/05/23 08:50:55;;;;;;;3.07;0.97;;;15.50;70.70;;;;;;5010095;28;20441;-78
2021/05/23 08:53:22;;;;;;;5.87;1.30;;;15.40;66.90;;;;;;4993133;28;20548;-79
2021/05/23 08:55:50;;;;;;;2.63;1.03;;;15.20;69.30;;;;;;4990472;28;20447;-78
2021/05/23 08:58:17;;;;;;;2.10;1.10;;;15.10;70.80;;;;;;4986264;28;20474;-78
2021/05/23 09:00:44;;;;;;;2.53;1.03;;;15.00;69.50;;;;;;5014553;28;20444;-77
2021/05/23 09:03:13;;;;;;;2.53;0.97;;;14.80;68.90;;;;;;4975052;28;20434;-78
2021/05/23 09:05:44;;;;;;;2.87;1.23;;;14.50;70.10;;;;;;4997093;28;20495;-78
2021/05/23 09:08:14;;;;;;;4.47;1.20;;;14.40;73.90;;;;;;5006840;28;20456;-77
2021/05/23 09:10:43;;;;;;;3.67;1.23;;;14.40;75.30;;;;;;4986181;28;20450;-78
2021/05/23 09:13:12;;;;;;;2.70;1.43;;;14.30;76.40;;;;;;5004943;28;20902;-78
2021/05/23 09:15:40;;;;;;;6.93;1.90;;;14.30;75.00;;;;;;4998468;28;20496;-78
2021/05/23 09:18:15;;;;;;;2.13;1.40;;;14.20;74.20;;;;;;4991101;28;20509;-77
2021/05/23 09:20:43;;;;;;;4.23;1.30;;;14.10;73.40;;;;;;4984869;28;20482;-78
2021/05/23 09:23:22;;;;;;;2.60;1.67;;;14.00;74.60;;;;;;4971154;28;20447;-78
2021/05/23 09:25:49;;;;;;;3.77;1.63;;;13.90;76.00;;;;;;5000323;28;20486;-78
2021/05/23 09:28:30;;;;;;;2.90;1.80;;;13.90;77.70;;;;;;4970718;28;21031;-78
2021/05/23 09:31:09;;;;;;;6.30;2.17;;;13.90;80.90;;;;;;4981429;28;20477;-77
2021/05/23 09:33:41;;;;;;;3.63;1.37;;;14.00;81.00;;;;;;5000354;28;20483;-77
2021/05/23 09:36:08;;;;;;;3.13;1.67;;;14.00;78.70;;;;;;4988773;28;20434;-78
2021/05/23 09:38:39;;;;;;;6.90;2.10;;;13.90;76.80;;;;;;5015976;28;20503;-78
2021/05/23 09:41:17;;;;;;;1.90;1.20;;;14.00;78.10;;;;;;5001843;28;20547;-78
2021/05/23 09:43:44;;;;;;;2.37;1.47;;;14.20;78.60;;;;;;5006128;28;20473;-78
2021/05/23 09:46:14;;;;;;;4.50;1.40;;;14.30;77.30;;;;;;4993969;28;20511;-78
2021/05/23 09:48:49;;;;;;;3.87;1.60;;;14.40;76.40;;;;;;4996271;28;20555;-78
2021/05/23 09:51:18;;;;;;;8.90;1.73;;;14.30;75.70;;;;;;5014406;28;20428;-78
2021/05/23 09:53:59;;;;;;;3.13;2.17;;;14.30;76.90;;;;;;5027053;28;20472;-78
2021/05/23 09:56:31;;;;;;;2.30;1.43;;;14.50;77.00;;;;;;4993012;28;20508;-79
2021/05/23 09:58:58;;;;;;;2.00;1.40;;;14.70;75.10;;;;;;5008768;28;20524;-78
2021/05/23 10:01:34;;;;;;;2.57;1.60;;;14.90;75.30;;;;;;4994340;28;20936;-79
2021/05/23 10:04:02;;;;;;;2.70;1.60;;;15.30;74.70;;;;;;5001641;28;20475;-78
2021/05/23 10:06:31;;;;;;;4.80;1.60;;;15.40;70.10;;;;;;4999617;28;20451;-78
2021/05/23 10:08:58;;;;;;;3.93;1.40;;;15.60;70.00;;;;;;5003583;28;20476;-78
2021/05/23 10:11:26;;;;;;;2.87;1.17;;;15.60;66.20;;;;;;5008608;28;20605;-78
2021/05/23 10:13:54;;;;;;;2.03;1.47;;;15.60;67.60;;;;;;5014133;28;20477;-79
2021/05/23 10:16:22;;;;;;;1.60;1.20;;;15.50;68.10;;;;;;5004336;28;20526;-78
2021/05/23 10:18:50;;;;;;;2.93;1.80;;;15.60;70.10;;;;;;4995772;28;20547;-78
2021/05/23 10:21:17;;;;;;;4.93;1.63;;;15.50;70.30;;;;;;4995770;28;20942;-78
2021/05/23 10:23:57;;;;;;;3.50;1.73;;;15.40;66.10;;;;;;4999441;28;20831;-78
2021/05/23 10:26:46;;;;;;;2.40;1.70;;;15.20;70.90;;;;;;5005124;28;20454;-77
2021/05/23 10:29:13;;;;;;;2.90;1.73;;;15.00;68.90;;;;;;4974746;28;20518;-78
2021/05/23 10:31:43;;;;;;;3.10;1.53;;;14.90;69.90;;;;;;4992312;28;20431;-78
2021/05/23 10:34:10;;;;;;;2.77;2.03;;;14.80;68.20;;;;;;4999589;28;20512;-78
2021/05/23 10:36:39;;;;;;;7.50;2.00;;;14.90;69.80;;;;;;5013275;28;20446;-77
2021/05/23 10:39:09;;;;;;;3.87;1.63;;;15.00;69.30;;;;;;5001756;28;20513;-77
2021/05/23 10:41:37;;;;;;;2.40;1.10;;;15.00;67.50;;;;;;4990182;28;20446;-78
2021/05/23 10:44:25;;;;;;;3.03;1.47;;;15.00;69.80;;;;;;5009366;28;20475;-78
2021/05/23 10:46:52;;;;;;;3.00;1.63;;;14.90;71.10;;;;;;5013653;28;21046;-78
2021/05/23 10:49:20;;;;;;;4.40;1.30;;;15.00;70.60;;;;;;5009210;28;21372;-78
2021/05/23 10:51:55;;;;;;;2.10;1.43;;;15.10;69.30;;;;;;5000321;28;20438;-78
2021/05/23 10:54:22;;;;;;;2.03;1.70;;;15.30;67.80;;;;;;5011756;28;20489;-78
2021/05/23 10:57:00;;;;;;;3.13;1.23;;;15.50;67.70;;;;;;4995406;28;20854;-78
2021/05/23 10:59:32;;;;;;;2.83;1.10;;;15.70;65.40;;;;;;5006020;28;20529;-78
2021/05/23 11:01:59;;;;;;;2.53;1.27;;;15.90;62.60;;;;;;5003308;28;20435;-78
2021/05/23 11:04:41;;;;;;;1.83;1.10;;;16.10;65.00;;;;;;4999176;28;20469;-78
2021/05/23 11:07:12;;;;;;;1.37;1.23;;;16.40;60.50;;;;;;5011447;28;20857;-78
2021/05/23 11:09:43;;;;;;;3.73;1.47;;;16.60;61.60;;;;;;5003515;28;20474;-78
2021/05/23 11:12:13;;;;;;;2.27;1.37;;;16.80;61.90;;;;;;4994185;28;20515;-78
2021/05/23 11:14:40;;;;;;;3.60;2.03;;;16.80;61.60;;;;;;4993176;28;20470;-78
2021/05/23 11:17:09;;;;;;;2.30;1.10;;;16.60;57.70;;;;;;5001912;28;20445;-78
2021/05/23 11:19:37;;;;;;;2.63;1.20;;;16.30;58.70;;;;;;4975908;28;20532;-78
2021/05/23 11:22:04;;;;;;;2.00;1.03;;;16.20;60.20;;;;;;5005006;28;20534;-78
2021/05/23 11:24:36;;;;;;;4.07;1.20;;;16.20;61.50;;;;;;4989743;28;20884;-78
2021/05/23 11:27:14;;;;;;;4.30;1.20;;;16.30;58.30;;;;;;4992376;28;20477;-78
2021/05/23 11:29:49;;;;;;;6.57;1.40;;;16.40;58.00;;;;;;4999024;28;20472;-78
2021/05/23 11:32:17;;;;;;;3.03;1.10;;;16.40;59.30;;;;;;5010723;28;20530;-78
2021/05/23 11:34:45;;;;;;;1.10;1.00;;;16.30;60.30;;;;;;4996399;28;20476;-78
2021/05/23 11:37:12;;;;;;;3.80;1.40;;;16.40;62.50;;;;;;5003664;28;20521;-78
2021/05/23 11:39:39;;;;;;;2.47;1.10;;;16.30;59.30;;;;;;4994059;28;20466;-78
2021/05/23 11:42:07;;;;;;;1.60;1.30;;;16.10;62.00;;;;;;4993203;28;20515;-77
2021/05/23 11:44:41;;;;;;;2.63;1.73;;;16.10;60.20;;;;;;5007847;28;20466;-78
2021/05/23 11:47:11;;;;;;;1.67;1.13;;;16.10;60.90;;;;;;4992645;28;20549;-78
2021/05/23 11:49:44;;;;;;;1.50;0.93;;;16.10;59.70;;;;;;4992245;28;20523;-78
2021/05/23 11:52:16;;;;;;;2.27;1.30;;;16.00;62.40;;;;;;5008356;28;20471;-78
2021/05/23 11:54:43;;;;;;;1.93;0.90;;;16.00;60.70;;;;;;5018958;28;20480;-78
2021/05/23 11:57:10;;;;;;;1.63;1.00;;;16.00;59.90;;;;;;4988359;28;20453;-78
2021/05/23 11:59:40;;;;;;;1.63;0.87;;;16.00;59.20;;;;;;5007098;28;20497;-77
2021/05/23 12:02:07;;;;;;;2.37;1.30;;;15.90;61.70;;;;;;5016918;28;20971;-78
2021/05/23 12:04:34;;;;;;;1.30;0.90;;;15.90;59.90;;;;;;5000582;28;20474;-78
2021/05/23 12:07:01;;;;;;;11.07;1.33;;;15.90;60.00;;;;;;5009705;28;20465;-78
2021/05/23 12:09:37;;;;;;;2.33;1.00;;;15.90;59.90;;;;;;5006084;28;20464;-78
2021/05/23 12:12:07;;;;;;;2.20;0.80;;;15.90;60.40;;;;;;4984494;28;20450;-78
2021/05/23 12:14:41;;;;;;;2.30;1.10;;;15.90;59.90;;;;;;4991497;28;20991;-78
2021/05/23 12:17:21;;;;;;;2.17;1.27;;;15.90;60.90;;;;;;5018731;28;21060;-78
2021/05/23 12:19:55;;;;;;;4.90;1.50;;;15.90;62.10;;;;;;5011650;28;20493;-78
2021/05/23 12:22:30;;;;;;;2.60;1.00;;;15.90;61.00;;;;;;5011522;28;20807;-78
2021/05/23 12:25:03;;;;;;;2.30;0.93;;;16.00;61.30;;;;;;4996339;28;20482;-78
2021/05/23 12:27:36;;;;;;;4.10;1.10;;;16.10;61.00;;;;;;5001534;28;20961;-78
2021/05/23 12:30:12;;;;;;;1.37;1.00;;;16.20;60.20;;;;;;5011004;28;21009;-77
2021/05/23 12:32:54;;;;;;;2.57;0.90;;;16.20;60.20;;;;;;4999234;28;20878;-78
2021/05/23 12:35:27;;;;;;;1.47;0.70;;;16.30;62.60;;;;;;5000402;28;20971;-78
2021/05/23 12:38:06;;;;;;;4.70;1.20;;;16.60;59.40;;;;;;4991359;28;20457;-78
2021/05/23 12:40:40;;;;;;;1.40;1.03;;;16.80;56.40;;;;;;4986485;28;20454;-78
2021/05/23 12:43:18;;;;;;;2.07;1.00;;;16.80;56.70;;;;;;4994823;28;20539;-78
2021/05/23 12:45:56;;;;;;;2.10;0.90;;;16.80;57.00;;;;;;4988910;28;20443;-78
2021/05/23 12:48:35;;;;;;;2.30;1.00;;;16.90;56.80;;;;;;4995600;28;20473;-78
2021/05/23 12:51:20;;;;;;;6.60;1.33;;;17.00;58.80;;;;;;5012016;28;20425;-78
2021/05/23 12:53:56;;;;;;;3.00;1.13;;;17.20;57.90;;;;;;5010036;28;20548;-78
2021/05/23 12:56:28;;;;;;;2.50;1.00;;;17.10;58.10;;;;;;4992532;28;20855;-78
2021/05/23 12:58:59;;;;;;;2.60;1.20;;;17.10;57.20;;;;;;4989944;28;20544;-78